createdAt,value
2019-04-06T00:00:36.716Z,2.90
2019-04-06T00:03:05.313Z,3.00
2019-04-06T00:05:34.000Z,3.10
2019-04-06T00:08:02.544Z,2.90
2019-04-06T00:10:31.173Z,2.70
2019-04-06T00:12:59.684Z,2.50
2019-04-06T00:15:28.271Z,2.50
2019-04-06T00:17:56.755Z,2.40
2019-04-06T00:20:25.315Z,2.50
2019-04-06T00:22:53.839Z,2.60
2019-04-06T00:25:22.388Z,2.50
2019-04-06T00:27:50.918Z,2.30
2019-04-06T00:30:19.702Z,2.20
2019-04-06T00:32:49.874Z,2.10
2019-04-06T00:35:18.415Z,2.10
2019-04-06T00:37:47.008Z,2.00
2019-04-06T00:40:15.602Z,2.00
2019-04-06T00:42:44.154Z,2.00
2019-04-06T00:45:12.827Z,1.90
2019-04-06T00:47:41.387Z,1.90
2019-04-06T00:50:10.047Z,1.80
2019-04-06T00:52:38.594Z,1.80
2019-04-06T00:55:07.263Z,1.70
2019-04-06T00:57:35.814Z,1.70
2019-04-06T01:00:06.811Z,1.60
2019-04-06T01:02:35.362Z,1.50
2019-04-06T01:05:05.698Z,1.50
2019-04-06T01:07:34.174Z,1.50
2019-04-06T01:10:03.049Z,1.40
2019-04-06T01:12:31.719Z,1.40
2019-04-06T01:15:00.255Z,1.30
2019-04-06T01:17:28.807Z,1.30
2019-04-06T01:19:57.337Z,1.20
2019-04-06T01:22:25.884Z,1.20
2019-04-06T01:24:54.486Z,1.20
2019-04-06T01:27:22.955Z,1.20
2019-04-06T01:29:51.486Z,1.10
2019-04-06T01:32:20.178Z,1.10
2019-04-06T01:34:48.714Z,1.00
2019-04-06T01:37:17.263Z,1.10
2019-04-06T01:39:45.795Z,1.20
2019-04-06T01:42:14.370Z,1.30
2019-04-06T01:44:42.872Z,1.40
2019-04-06T01:47:11.437Z,1.40
2019-04-06T01:49:40.020Z,1.30
2019-04-06T01:52:08.574Z,1.10
2019-04-06T01:54:37.103Z,1.10
2019-04-06T01:57:05.790Z,0.90
2019-04-06T01:59:34.387Z,0.80
2019-04-06T02:02:13.584Z,0.70
2019-04-06T02:04:42.050Z,0.70
2019-04-06T02:07:10.595Z,0.70
2019-04-06T02:09:39.116Z,0.90
2019-04-06T02:12:07.666Z,1.10
2019-04-06T02:14:36.195Z,0.90
2019-04-06T02:17:05.587Z,0.80
2019-04-06T02:19:34.233Z,0.70
2019-04-06T02:22:02.769Z,0.60
2019-04-06T02:24:31.296Z,0.50
2019-04-06T02:26:59.843Z,0.40
2019-04-06T02:29:28.296Z,0.40
2019-04-06T02:32:14.686Z,0.50
2019-04-06T02:34:47.785Z,0.50
2019-04-06T02:37:20.713Z,0.40
2019-04-06T02:39:50.887Z,0.30
2019-04-06T02:42:21.143Z,0.30
2019-04-06T02:44:49.596Z,0.30
2019-04-06T02:47:18.149Z,0.20
2019-04-06T02:49:46.753Z,0.10
2019-04-06T02:52:15.299Z,0.10
2019-04-06T02:54:43.932Z,0.00
2019-04-06T02:57:12.466Z,0.00
2019-04-06T02:59:40.928Z,0.00
2019-04-06T03:02:09.482Z,-0.10
2019-04-06T03:04:38.079Z,0.00
2019-04-06T03:07:06.638Z,0.00
2019-04-06T03:09:35.215Z,-0.10
2019-04-06T03:12:03.858Z,-0.10
2019-04-06T03:14:32.558Z,-0.20
2019-04-06T03:17:01.090Z,-0.20
2019-04-06T03:19:29.692Z,-0.20
2019-04-06T03:21:58.245Z,-0.30
2019-04-06T03:24:26.905Z,-0.30
2019-04-06T03:27:02.286Z,-0.30
2019-04-06T03:29:27.267Z,-0.20
2019-04-06T03:31:55.900Z,-0.20
2019-04-06T03:34:24.489Z,-0.30
2019-04-06T03:36:53.042Z,-0.20
2019-04-06T03:39:21.578Z,-0.10
2019-04-06T03:41:50.124Z,-0.20
2019-04-06T03:44:18.779Z,-0.30
2019-04-06T03:46:47.819Z,-0.20
2019-04-06T03:49:16.352Z,-0.30
2019-04-06T03:51:44.903Z,-0.30
2019-04-06T03:54:13.434Z,-0.40
2019-04-06T03:56:42.049Z,-0.40
2019-04-06T03:59:10.757Z,-0.50
2019-04-06T04:01:39.259Z,-0.40
2019-04-06T04:04:07.819Z,-0.30
2019-04-06T04:06:36.434Z,-0.40
2019-04-06T04:09:06.208Z,-0.40
2019-04-06T04:11:34.957Z,-0.50
2019-04-06T04:14:03.636Z,-0.50
2019-04-06T04:16:32.168Z,-0.60
2019-04-06T04:19:00.736Z,-0.60
2019-04-06T04:21:29.323Z,-0.60
2019-04-06T04:23:57.828Z,-0.50
2019-04-06T04:26:26.361Z,-0.50
2019-04-06T04:28:54.986Z,-0.60
2019-04-06T04:31:23.526Z,-0.60
2019-04-06T04:33:52.071Z,-0.50
2019-04-06T04:36:20.619Z,-0.60
2019-04-06T04:38:49.253Z,-0.70
2019-04-06T04:41:17.714Z,-0.60
2019-04-06T04:43:46.382Z,-0.60
2019-04-06T04:46:15.129Z,-0.60
2019-04-06T04:48:43.723Z,-0.70
2019-04-06T04:51:12.738Z,-0.60
2019-04-06T04:53:41.286Z,-0.60
2019-04-06T04:56:09.822Z,-0.60
2019-04-06T04:58:38.379Z,-0.60
2019-04-06T05:01:06.915Z,-0.70
2019-04-06T05:03:35.470Z,-0.60
2019-04-06T05:06:04.545Z,-0.60
2019-04-06T05:08:33.098Z,-0.70
2019-04-06T05:11:01.571Z,-0.70
2019-04-06T05:13:30.110Z,-0.80
2019-04-06T05:16:12.149Z,-0.80
2019-04-06T05:18:41.989Z,-0.80
2019-04-06T05:21:11.727Z,-0.80
2019-04-06T05:23:40.256Z,-0.80
2019-04-06T05:26:09.149Z,-0.80
2019-04-06T05:28:37.680Z,-0.70
2019-04-06T05:31:06.307Z,-0.60
2019-04-06T05:33:34.982Z,-0.50
2019-04-06T05:36:03.678Z,-0.40
2019-04-06T05:38:32.212Z,-0.40
2019-04-06T05:41:00.762Z,-0.30
2019-04-06T05:43:29.303Z,-0.10
2019-04-06T05:45:58.027Z,0.00
2019-04-06T05:48:26.734Z,0.20
2019-04-06T05:50:55.227Z,0.40
2019-04-06T05:53:23.743Z,0.40
2019-04-06T05:55:52.425Z,0.60
2019-04-06T05:58:21.027Z,0.70
2019-04-06T06:00:49.559Z,0.80
2019-04-06T06:03:18.112Z,0.80
2019-04-06T06:05:46.643Z,1.00
2019-04-06T06:08:15.195Z,1.10
2019-04-06T06:10:43.726Z,1.40
2019-04-06T06:13:12.284Z,1.70
2019-04-06T06:15:40.897Z,2.10
2019-04-06T06:18:09.442Z,2.40
2019-04-06T06:20:37.971Z,2.90
2019-04-06T06:23:06.527Z,3.30
2019-04-06T06:25:35.378Z,3.80
2019-04-06T06:28:13.719Z,4.10
2019-04-06T06:30:34.130Z,4.30
2019-04-06T06:33:02.641Z,4.50
2019-04-06T06:35:31.232Z,4.80
2019-04-06T06:37:59.782Z,5.20
2019-04-06T06:40:28.238Z,5.40
2019-04-06T06:42:56.790Z,5.70
2019-04-06T06:45:25.322Z,6.10
2019-04-06T06:47:53.873Z,6.40
2019-04-06T06:50:22.399Z,6.50
2019-04-06T06:52:50.948Z,6.30
2019-04-06T06:55:19.543Z,6.00
2019-04-06T06:57:48.014Z,5.80
2019-04-06T07:00:16.975Z,5.80
2019-04-06T07:02:45.534Z,5.80
2019-04-06T07:05:14.303Z,5.70
2019-04-06T07:07:43.325Z,6.00
2019-04-06T07:10:12.654Z,6.40
2019-04-06T07:12:41.344Z,6.90
2019-04-06T07:15:10.261Z,7.30
2019-04-06T07:17:38.904Z,7.70
2019-04-06T07:20:08.186Z,8.00
2019-04-06T07:22:36.784Z,8.30
2019-04-06T07:25:06.614Z,8.60
2019-04-06T07:27:35.407Z,8.90
2019-04-06T07:30:06.781Z,9.30
2019-04-06T07:32:35.328Z,9.40
2019-04-06T07:35:05.104Z,9.50
2019-04-06T07:37:33.650Z,9.50
2019-04-06T07:40:02.255Z,9.70
2019-04-06T07:42:30.810Z,9.80
2019-04-06T07:44:59.338Z,9.90
2019-04-06T07:47:27.899Z,10.00
2019-04-06T07:49:56.515Z,10.10
2019-04-06T07:52:25.713Z,10.00
2019-04-06T07:54:55.172Z,10.10
2019-04-06T07:57:24.268Z,10.40
2019-04-06T07:59:52.798Z,10.60
2019-04-06T08:02:21.357Z,10.80
2019-04-06T08:04:49.958Z,10.90
2019-04-06T08:07:18.524Z,10.90
2019-04-06T08:09:47.058Z,11.00
2019-04-06T08:12:15.547Z,11.10
2019-04-06T08:14:44.079Z,11.10
2019-04-06T08:17:12.630Z,11.00
2019-04-06T08:19:41.173Z,11.00
2019-04-06T08:22:09.728Z,11.10
2019-04-06T08:24:38.264Z,11.20
2019-04-06T08:27:06.806Z,11.30
2019-04-06T08:29:35.359Z,11.60
2019-04-06T08:32:03.966Z,11.60
2019-04-06T08:34:32.455Z,11.70
2019-04-06T08:37:01.158Z,11.80
2019-04-06T08:39:30.034Z,11.70
2019-04-06T08:41:58.706Z,11.60
2019-04-06T08:44:27.586Z,11.50
2019-04-06T08:46:56.123Z,11.40
2019-04-06T08:49:24.620Z,11.50
2019-04-06T08:51:53.152Z,11.50
2019-04-06T08:54:21.919Z,11.60
2019-04-06T08:56:50.720Z,11.60
2019-04-06T08:59:19.301Z,12.00
2019-04-06T09:01:47.839Z,12.40
2019-04-06T09:04:16.649Z,12.70
2019-04-06T09:06:45.127Z,13.00
2019-04-06T09:09:13.754Z,13.20
2019-04-06T09:11:42.382Z,13.40
2019-04-06T09:14:30.495Z,13.50
2019-04-06T09:16:59.252Z,13.80
2019-04-06T09:19:27.867Z,14.20
2019-04-06T09:21:56.472Z,14.10
2019-04-06T09:24:25.027Z,14.10
2019-04-06T09:26:53.726Z,13.90
2019-04-06T09:29:24.352Z,13.60
2019-04-06T09:31:52.425Z,13.60
2019-04-06T09:34:21.015Z,13.80
2019-04-06T09:36:49.591Z,14.20
2019-04-06T09:39:18.220Z,14.40
2019-04-06T09:41:46.835Z,14.70
2019-04-06T09:44:33.490Z,14.90
2019-04-06T09:47:03.593Z,15.10
2019-04-06T09:49:45.741Z,15.20
2019-04-06T09:52:15.921Z,15.40
2019-04-06T09:54:46.165Z,15.60
2019-04-06T09:57:22.191Z,15.80
2019-04-06T09:59:55.292Z,15.70
2019-04-06T10:02:34.751Z,15.50
2019-04-06T10:05:12.086Z,15.30
2019-04-06T10:07:42.403Z,15.40
2019-04-06T10:10:19.519Z,15.70
2019-04-06T10:12:58.929Z,15.90
2019-04-06T10:15:44.655Z,16.10
2019-04-06T10:18:20.598Z,16.20
2019-04-06T10:21:03.024Z,16.50
2019-04-06T10:23:42.769Z,16.20
2019-04-06T10:26:29.156Z,15.50
2019-04-06T10:28:59.326Z,15.40
2019-04-06T10:31:41.349Z,15.20
2019-04-06T10:34:27.806Z,15.40
2019-04-06T10:36:58.003Z,15.70
2019-04-06T10:39:30.828Z,16.10
2019-04-06T10:42:03.995Z,16.40
2019-04-06T10:44:46.496Z,16.30
2019-04-06T10:47:25.503Z,16.40
2019-04-06T10:50:04.736Z,16.20
2019-04-06T10:52:34.933Z,16.00
2019-04-06T10:55:21.363Z,15.80
2019-04-06T10:57:54.147Z,15.90
2019-04-06T11:00:24.399Z,16.10
2019-04-06T11:02:54.509Z,16.10
2019-04-06T11:05:27.547Z,16.60
2019-04-06T11:08:14.024Z,17.00
2019-04-06T11:10:44.219Z,17.40
2019-04-06T11:13:16.833Z,17.80
2019-04-06T11:16:03.290Z,18.00
2019-04-06T11:18:45.742Z,17.90
2019-04-06T11:21:27.887Z,17.80
2019-04-06T11:24:14.427Z,17.20
2019-04-06T11:26:47.625Z,17.00
2019-04-06T11:29:17.939Z,17.00
2019-04-06T11:31:57.064Z,16.50
2019-04-06T11:34:27.253Z,16.70
2019-04-06T11:37:12.544Z,16.70
2019-04-06T11:39:42.732Z,16.70
2019-04-06T11:42:12.938Z,16.20
2019-04-06T11:44:55.024Z,16.30
2019-04-06T11:47:41.318Z,16.40
2019-04-06T11:50:14.306Z,16.50
2019-04-06T11:52:59.419Z,16.90
2019-04-06T11:55:32.034Z,17.20
2019-04-06T11:58:07.931Z,17.30
2019-04-06T12:00:47.097Z,17.30
2019-04-06T12:03:23.182Z,17.30
2019-04-06T12:05:59.210Z,17.20
2019-04-06T12:08:29.402Z,16.90
2019-04-06T12:11:11.386Z,17.20
2019-04-06T12:13:41.512Z,17.20
2019-04-06T12:16:20.498Z,17.40
2019-04-06T12:18:50.766Z,17.80
2019-04-06T12:21:24.495Z,17.90
2019-04-06T12:24:09.916Z,18.00
2019-04-06T12:26:45.645Z,18.20
2019-04-06T12:29:30.822Z,18.20
2019-04-06T12:32:17.301Z,18.20
2019-04-06T12:34:56.458Z,18.10
2019-04-06T12:37:38.454Z,17.80
2019-04-06T12:40:09.396Z,17.80
2019-04-06T12:42:56.003Z,18.00
2019-04-06T12:45:38.031Z,18.10
2019-04-06T12:48:17.321Z,18.40
2019-04-06T12:51:05.965Z,18.30
2019-04-06T12:53:42.110Z,18.20
2019-04-06T12:56:24.464Z,18.30
2019-04-06T12:58:54.644Z,18.50
2019-04-06T13:01:41.489Z,18.50
2019-04-06T13:04:11.676Z,18.50
2019-04-06T13:06:56.961Z,18.60
2019-04-06T13:09:27.339Z,18.50
2019-04-06T13:12:03.272Z,18.30
2019-04-06T13:14:36.266Z,18.30
2019-04-06T13:17:06.499Z,18.20
2019-04-06T13:19:42.867Z,17.70
2019-04-06T13:22:25.163Z,17.70
2019-04-06T13:25:11.353Z,17.70
2019-04-06T13:27:56.543Z,18.00
2019-04-06T13:30:26.723Z,18.20
2019-04-06T13:32:57.703Z,18.30
2019-04-06T13:35:31.469Z,18.00
2019-04-06T13:38:04.868Z,18.10
2019-04-06T13:40:37.835Z,18.40
2019-04-06T13:43:22.998Z,18.60
2019-04-06T13:45:55.820Z,18.50
2019-04-06T13:48:44.547Z,18.10
2019-04-06T13:51:15.106Z,18.00
2019-04-06T13:54:01.803Z,17.90
2019-04-06T13:56:47.916Z,17.90
2019-04-06T13:59:18.133Z,17.80
2019-04-06T14:01:48.297Z,17.90
2019-04-06T14:04:21.458Z,17.90
2019-04-06T14:07:00.390Z,17.90
2019-04-06T14:09:36.523Z,18.00
2019-04-06T14:12:18.876Z,17.70
2019-04-06T14:14:49.263Z,17.60
2019-04-06T14:17:22.519Z,17.40
2019-04-06T14:19:52.790Z,17.40
2019-04-06T14:22:28.620Z,17.60
2019-04-06T14:24:58.799Z,17.80
2019-04-06T14:27:32.609Z,17.90
2019-04-06T14:30:02.832Z,17.90
2019-04-06T14:32:35.517Z,17.80
2019-04-06T14:35:09.764Z,17.90
2019-04-06T14:37:40.326Z,17.90
2019-04-06T14:40:10.594Z,17.60
2019-04-06T14:42:46.967Z,17.50
2019-04-06T14:45:19.951Z,17.50
2019-04-06T14:47:50.418Z,17.70
2019-04-06T14:50:35.972Z,17.80
2019-04-06T14:53:06.154Z,17.90
2019-04-06T14:55:45.173Z,17.90
2019-04-06T14:58:32.665Z,17.80
2019-04-06T15:01:06.246Z,17.60
2019-04-06T15:03:36.706Z,17.40
2019-04-06T15:06:16.280Z,17.40
2019-04-06T15:09:03.132Z,17.30
2019-04-06T15:11:36.375Z,17.20
2019-04-06T15:14:09.616Z,17.20
2019-04-06T15:16:54.886Z,17.30
2019-04-06T15:19:28.112Z,17.40
2019-04-06T15:22:13.969Z,17.30
2019-04-06T15:24:46.728Z,17.20
2019-04-06T15:27:16.907Z,17.00
2019-04-06T15:29:56.375Z,16.80
2019-04-06T15:32:30.029Z,16.80
2019-04-06T15:35:15.588Z,16.80
2019-04-06T15:37:45.765Z,16.70
2019-04-06T15:40:18.950Z,16.60
2019-04-06T15:42:49.128Z,16.60
2019-04-06T15:45:22.327Z,16.50
2019-04-06T15:48:36.954Z,16.50
2019-04-06T15:51:00.347Z,16.60
2019-04-06T15:53:39.850Z,16.70
2019-04-06T15:56:13.138Z,16.70
2019-04-06T15:59:01.249Z,16.60
2019-04-06T16:01:31.811Z,16.50
2019-04-06T16:04:04.778Z,16.50
2019-04-06T16:06:43.812Z,16.40
2019-04-06T16:09:20.086Z,16.30
2019-04-06T16:12:02.533Z,16.30
2019-04-06T16:14:51.214Z,16.30
2019-04-06T16:17:24.317Z,16.40
2019-04-06T16:20:10.464Z,16.20
2019-04-06T16:22:40.668Z,16.00
2019-04-06T16:25:17.124Z,16.00
2019-04-06T16:27:56.343Z,16.00
2019-04-06T16:30:35.715Z,15.90
2019-04-06T16:33:20.978Z,15.90
2019-04-06T16:35:51.156Z,15.90
2019-04-06T16:38:39.926Z,15.80
2019-04-06T16:41:28.664Z,15.80
2019-04-06T16:43:58.795Z,15.80
2019-04-06T16:46:37.537Z,15.60
2019-04-06T16:49:10.836Z,15.50
2019-04-06T16:51:41.071Z,15.40
2019-04-06T16:54:29.295Z,15.40
2019-04-06T16:57:11.807Z,15.40
2019-04-06T16:59:42.076Z,15.40
2019-04-06T17:02:22.171Z,15.30
2019-04-06T17:04:47.011Z,15.30
2019-04-06T17:07:29.151Z,15.10
2019-04-06T17:10:08.191Z,15.10
2019-04-06T17:12:38.363Z,15.10
2019-04-06T17:15:18.254Z,15.00
2019-04-06T17:17:51.279Z,14.90
2019-04-06T17:20:39.375Z,14.80
2019-04-06T17:23:09.585Z,14.80
2019-04-06T17:25:39.742Z,14.70
2019-04-06T17:28:18.490Z,14.70
2019-04-06T17:31:00.472Z,14.50
2019-04-06T17:33:36.811Z,14.60
2019-04-06T17:36:23.532Z,14.50
2019-04-06T17:39:02.764Z,14.30
2019-04-06T17:41:49.296Z,14.30
2019-04-06T17:44:37.787Z,14.20
2019-04-06T17:47:07.897Z,14.20
2019-04-06T17:49:40.784Z,14.10
2019-04-06T17:52:20.321Z,14.00
2019-04-06T17:54:51.375Z,13.80
2019-04-06T17:57:30.634Z,13.70
2019-04-06T18:00:06.767Z,13.60
2019-04-06T18:02:48.703Z,13.60
2019-04-06T18:05:33.684Z,13.60
2019-04-06T18:08:13.122Z,13.50
2019-04-06T18:10:43.654Z,13.40
2019-04-06T18:13:13.843Z,13.30
2019-04-06T18:15:42.749Z,13.30
2019-04-06T18:18:11.716Z,13.20
2019-04-06T18:20:40.426Z,13.10
2019-04-06T18:23:09.016Z,13.10
2019-04-06T18:25:38.158Z,13.00
2019-04-06T18:28:07.098Z,13.00
2019-04-06T18:30:36.071Z,12.90
2019-04-06T18:33:09.434Z,12.90
2019-04-06T18:35:38.336Z,12.90
2019-04-06T18:38:09.076Z,12.80
2019-04-06T18:40:38.101Z,12.70
2019-04-06T18:43:06.629Z,12.60
2019-04-06T18:45:35.601Z,12.50
2019-04-06T18:48:04.335Z,12.40
2019-04-06T18:50:36.078Z,12.40
2019-04-06T18:53:03.426Z,12.30
2019-04-06T18:55:32.459Z,12.30
2019-04-06T18:58:09.640Z,12.30
2019-04-06T19:00:31.347Z,12.20
2019-04-06T19:03:11.180Z,12.20
2019-04-06T19:05:30.246Z,12.10
2019-04-06T19:07:58.703Z,12.10
2019-04-06T19:10:27.171Z,12.00
2019-04-06T19:12:55.699Z,12.00
2019-04-06T19:15:24.254Z,11.90
2019-04-06T19:17:53.301Z,11.90
2019-04-06T19:20:21.900Z,11.70
2019-04-06T19:22:51.131Z,11.70
2019-04-06T19:25:19.680Z,11.70
2019-04-06T19:27:48.687Z,11.70
2019-04-06T19:30:18.412Z,11.60
2019-04-06T19:32:47.259Z,11.60
2019-04-06T19:35:16.923Z,11.50
2019-04-06T19:37:48.074Z,11.50
2019-04-06T19:40:18.255Z,11.50
2019-04-06T19:42:46.790Z,11.40
2019-04-06T19:45:15.818Z,11.40
2019-04-06T19:47:44.402Z,11.30
2019-04-06T19:50:13.492Z,11.30
2019-04-06T19:52:42.019Z,11.20
2019-04-06T19:55:11.103Z,11.10
2019-04-06T19:57:39.712Z,11.00
2019-04-06T20:00:09.147Z,11.00
2019-04-06T20:02:38.016Z,10.90
2019-04-06T20:05:08.388Z,10.90
2019-04-06T20:07:38.096Z,10.80
2019-04-06T20:10:07.358Z,10.60
2019-04-06T20:12:36.157Z,10.50
2019-04-06T20:15:06.534Z,10.50
2019-04-06T20:17:35.506Z,10.50
2019-04-06T20:20:08.479Z,10.50
2019-04-06T20:22:37.026Z,10.50
2019-04-06T20:25:07.213Z,10.40
2019-04-06T20:27:35.738Z,10.30
2019-04-06T20:30:10.093Z,10.20
2019-04-06T20:32:39.105Z,10.20
2019-04-06T20:35:09.276Z,10.10
2019-04-06T20:37:38.563Z,10.10
2019-04-06T20:40:08.680Z,10.10
2019-04-06T20:42:37.307Z,10.10
2019-04-06T20:45:09.415Z,10.00
2019-04-06T20:47:38.547Z,9.90
2019-04-06T20:50:08.334Z,9.90
2019-04-06T20:52:37.087Z,9.80
2019-04-06T20:55:07.943Z,9.70
2019-04-06T20:57:36.604Z,9.70
2019-04-06T21:00:08.982Z,9.60
2019-04-06T21:02:37.651Z,9.50
2019-04-06T21:05:08.022Z,9.50
2019-04-06T21:07:36.998Z,9.50
2019-04-06T21:10:08.994Z,9.40
2019-04-06T21:12:37.604Z,9.40
2019-04-06T21:15:17.859Z,9.30
2019-04-06T21:17:38.639Z,9.20
2019-04-06T21:20:08.036Z,9.10
2019-04-06T21:22:36.688Z,9.00
2019-04-06T21:25:06.994Z,9.00
2019-04-06T21:27:36.107Z,8.90
2019-04-06T21:30:10.939Z,8.90
2019-04-06T21:32:39.625Z,8.90
2019-04-06T21:35:08.802Z,8.90
2019-04-06T21:37:37.864Z,8.80
2019-04-06T21:40:07.209Z,8.80
2019-04-06T21:42:36.485Z,8.70
2019-04-06T21:45:08.360Z,8.70
2019-04-06T21:47:37.461Z,8.70
2019-04-06T21:50:08.093Z,8.60
2019-04-06T21:52:37.294Z,8.60
2019-04-06T21:55:08.919Z,8.60
2019-04-06T21:57:37.737Z,8.50
2019-04-06T22:00:08.476Z,8.50
2019-04-06T22:02:38.004Z,8.50
2019-04-06T22:05:08.308Z,8.40
2019-04-06T22:07:47.126Z,8.30
2019-04-06T22:10:08.270Z,8.20
2019-04-06T22:12:36.825Z,8.00
2019-04-06T22:15:06.564Z,7.90
2019-04-06T22:17:35.916Z,7.90
2019-04-06T22:20:05.253Z,7.80
2019-04-06T22:22:33.796Z,7.80
2019-04-06T22:25:02.375Z,7.70
2019-04-06T22:27:31.709Z,7.70
2019-04-06T22:30:00.338Z,7.50
2019-04-06T22:32:28.970Z,7.50
2019-04-06T22:34:57.938Z,7.50
2019-04-06T22:37:26.547Z,7.50
2019-04-06T22:39:55.570Z,7.60
2019-04-06T22:42:24.103Z,7.50
2019-04-06T22:44:52.580Z,7.50
2019-04-06T22:47:21.119Z,7.30
2019-04-06T22:49:49.873Z,7.10
2019-04-06T22:52:18.540Z,7.00
2019-04-06T22:54:46.995Z,6.90
2019-04-06T22:57:15.983Z,6.80
2019-04-06T22:59:44.740Z,6.80
2019-04-06T23:02:13.391Z,6.70
2019-04-06T23:04:50.431Z,6.50
2019-04-06T23:07:18.192Z,6.40
2019-04-06T23:09:46.724Z,6.30
2019-04-06T23:12:15.563Z,6.20
2019-04-06T23:14:44.338Z,6.30
2019-04-06T23:17:13.365Z,6.40
2019-04-06T23:19:42.012Z,6.30
2019-04-06T23:22:10.535Z,6.20
2019-04-06T23:24:39.719Z,6.00
2019-04-06T23:27:08.518Z,6.00
2019-04-06T23:29:37.171Z,6.00
2019-04-06T23:32:05.686Z,5.90
2019-04-06T23:34:34.297Z,5.90
2019-04-06T23:37:02.755Z,5.80
2019-04-06T23:39:31.389Z,5.90
2019-04-06T23:42:00.160Z,6.00
2019-04-06T23:44:29.363Z,5.90
2019-04-06T23:46:57.987Z,5.90
2019-04-06T23:49:27.049Z,5.90
2019-04-06T23:51:56.141Z,6.10
2019-04-06T23:54:25.243Z,6.00
2019-04-06T23:56:54.042Z,5.90
2019-04-06T23:59:23.287Z,5.70
